createdAt,value
2022-11-21T00:01:28.159Z,97315.03
2022-11-21T00:03:55.713Z,97323.81
2022-11-21T00:06:23.868Z,97314.50
2022-11-21T00:08:52.068Z,97302.34
2022-11-21T00:11:19.270Z,97307.50
2022-11-21T00:13:46.834Z,97298.88
2022-11-21T00:16:17.515Z,97292.03
2022-11-21T00:18:45.216Z,97278.31
2022-11-21T00:21:16.426Z,97276.91
2022-11-21T00:23:45.846Z,97280.06
2022-11-21T00:26:15.432Z,97282.06
2022-11-21T00:28:45.347Z,97276.03
2022-11-21T00:31:24.240Z,97279.88
2022-11-21T00:33:51.718Z,97274.84
2022-11-21T00:36:18.928Z,97274.84
2022-11-21T00:38:46.430Z,97274.84
2022-11-21T00:41:13.644Z,97271.31
2022-11-21T00:43:41.146Z,97268.81
2022-11-21T00:46:08.354Z,97266.81
2022-11-21T00:48:35.828Z,97264.41
2022-11-21T00:51:03.095Z,97253.81
2022-11-21T00:53:30.932Z,97255.47
2022-11-21T00:55:59.674Z,97256.38
2022-11-21T00:58:27.770Z,97260.91
2022-11-21T01:01:13.820Z,97260.72
2022-11-21T01:03:42.363Z,97255.28
2022-11-21T01:06:13.598Z,97253.78
2022-11-21T01:08:44.270Z,97248.47
2022-11-21T01:11:15.823Z,97241.13
2022-11-21T01:13:44.014Z,97247.09
2022-11-21T01:16:38.671Z,97236.78
2022-11-21T01:19:06.583Z,97239.34
2022-11-21T01:21:33.835Z,97230.03
2022-11-21T01:24:02.912Z,97228.66
2022-11-21T01:26:33.104Z,97222.75
2022-11-21T01:29:00.899Z,97223.50
2022-11-21T01:31:30.474Z,97219.03
2022-11-21T01:34:00.162Z,97211.78
2022-11-21T01:36:33.755Z,97212.06
2022-11-21T01:39:05.573Z,97219.63
2022-11-21T01:41:37.236Z,97224.66
2022-11-21T01:44:10.602Z,97220.91
2022-11-21T01:46:37.815Z,97220.50
2022-11-21T01:49:26.207Z,97218.69
2022-11-21T01:51:58.131Z,97227.19
2022-11-21T01:54:36.458Z,97223.97
2022-11-21T01:57:34.020Z,97226.69
2022-11-21T02:00:18.167Z,97216.50
2022-11-21T02:02:55.397Z,97214.53
2022-11-21T02:05:32.757Z,97214.38
2022-11-21T02:08:09.974Z,97209.19
2022-11-21T02:10:45.829Z,97213.78
2022-11-21T02:13:13.018Z,97219.81
2022-11-21T02:15:40.592Z,97210.88
2022-11-21T02:18:10.244Z,97212.38
2022-11-21T02:20:41.835Z,97214.03
2022-11-21T02:23:21.560Z,97211.00
2022-11-21T02:25:51.188Z,97208.56
2022-11-21T02:28:23.644Z,97201.75
2022-11-21T02:30:51.512Z,97202.53
2022-11-21T02:33:19.203Z,97205.00
2022-11-21T02:36:00.575Z,97199.03
2022-11-21T02:38:38.875Z,97194.59
2022-11-21T02:41:26.696Z,97189.41
2022-11-21T02:44:05.709Z,97174.66
2022-11-21T02:46:36.261Z,97173.66
2022-11-21T02:49:08.465Z,97182.16
2022-11-21T02:51:35.930Z,97186.41
2022-11-21T02:54:03.145Z,97192.22
2022-11-21T02:56:30.569Z,97194.31
2022-11-21T02:58:57.897Z,97197.53
2022-11-21T03:01:25.400Z,97195.97
2022-11-21T03:03:52.544Z,97187.31
2022-11-21T03:06:20.024Z,97186.25
2022-11-21T03:08:47.178Z,97187.84
2022-11-21T03:11:14.622Z,97179.44
2022-11-21T03:13:41.757Z,97187.44
2022-11-21T03:16:09.275Z,97186.47
2022-11-21T03:18:36.390Z,97179.16
2022-11-21T03:21:03.954Z,97187.25
2022-11-21T03:23:31.132Z,97178.47
2022-11-21T03:26:00.321Z,97173.97
2022-11-21T03:28:27.458Z,97169.09
2022-11-21T03:30:55.064Z,97166.38
2022-11-21T03:33:22.183Z,97163.06
2022-11-21T03:35:49.682Z,97162.31
2022-11-21T03:38:16.870Z,97171.88
2022-11-21T03:40:44.417Z,97160.75
2022-11-21T03:43:11.577Z,97167.16
2022-11-21T03:45:39.087Z,97155.91
2022-11-21T03:48:06.614Z,97145.72
2022-11-21T03:50:34.077Z,97151.31
2022-11-21T03:53:01.156Z,97145.75
2022-11-21T03:55:28.586Z,97140.50
2022-11-21T03:57:55.796Z,97133.88
2022-11-21T04:00:23.356Z,97135.56
2022-11-21T04:02:50.491Z,97128.69
2022-11-21T04:05:17.987Z,97120.63
2022-11-21T04:07:46.398Z,97127.44
2022-11-21T04:10:14.130Z,97123.88
2022-11-21T04:12:41.350Z,97119.56
2022-11-21T04:15:13.409Z,97110.28
2022-11-21T04:17:40.955Z,97112.00
2022-11-21T04:20:09.818Z,97107.84
2022-11-21T04:22:37.028Z,97097.94
2022-11-21T04:25:04.908Z,97090.06
2022-11-21T04:27:32.085Z,97093.53
2022-11-21T04:29:59.509Z,97088.13
2022-11-21T04:32:26.701Z,97086.06
2022-11-21T04:34:54.359Z,97091.06
2022-11-21T04:37:21.732Z,97076.88
2022-11-21T04:39:49.234Z,97076.31
2022-11-21T04:42:16.395Z,97076.75
2022-11-21T04:44:43.832Z,97079.53
2022-11-21T04:47:11.102Z,97068.81
2022-11-21T04:49:38.611Z,97066.59
2022-11-21T04:52:05.907Z,97069.91
2022-11-21T04:54:33.343Z,97072.41
2022-11-21T04:57:01.334Z,97068.91
2022-11-21T04:59:28.870Z,97073.97
2022-11-21T05:01:55.995Z,97057.88
2022-11-21T05:04:23.587Z,97048.72
2022-11-21T05:06:50.834Z,97044.56
2022-11-21T05:09:19.033Z,97049.81
2022-11-21T05:12:04.813Z,97053.28
2022-11-21T05:14:32.336Z,97048.38
2022-11-21T05:16:59.632Z,97044.00
2022-11-21T05:19:27.045Z,97038.50
2022-11-21T05:21:54.254Z,97036.28
2022-11-21T05:24:21.716Z,97037.06
2022-11-21T05:26:48.895Z,97037.28
2022-11-21T05:29:16.461Z,97033.81
2022-11-21T05:31:43.633Z,97038.88
2022-11-21T05:34:11.112Z,97029.56
2022-11-21T05:36:38.293Z,97028.03
2022-11-21T05:39:06.038Z,97027.75
2022-11-21T05:41:33.577Z,97027.63
2022-11-21T05:44:01.053Z,97026.09
2022-11-21T05:46:28.278Z,97030.69
2022-11-21T05:48:55.956Z,97035.81
2022-11-21T05:51:23.101Z,97046.00
2022-11-21T05:53:50.760Z,97043.16
2022-11-21T05:56:19.791Z,97040.44
2022-11-21T05:58:47.449Z,97054.19
2022-11-21T06:01:15.850Z,97047.16
2022-11-21T06:03:43.417Z,97054.84
2022-11-21T06:06:14.698Z,97056.28
2022-11-21T06:08:46.877Z,97053.34
2022-11-21T06:11:16.758Z,97050.94
2022-11-21T06:13:45.223Z,97053.16
2022-11-21T06:16:19.766Z,97045.97
2022-11-21T06:18:58.630Z,97038.97
2022-11-21T06:21:29.371Z,97038.34
2022-11-21T06:23:59.174Z,97031.19
2022-11-21T06:26:27.757Z,97036.41
2022-11-21T06:28:55.483Z,97035.25
2022-11-21T06:31:26.933Z,97032.56
2022-11-21T06:33:59.499Z,97028.38
2022-11-21T06:36:27.371Z,97037.09
2022-11-21T06:38:56.374Z,97028.28
2022-11-21T06:41:27.230Z,97027.84
2022-11-21T06:43:54.846Z,97034.88
2022-11-21T06:46:22.061Z,97030.72
2022-11-21T06:48:49.618Z,97023.66
2022-11-21T06:51:23.624Z,97024.00
2022-11-21T06:53:57.832Z,97013.53
2022-11-21T06:56:30.770Z,97021.34
2022-11-21T06:58:59.002Z,97019.41
2022-11-21T07:01:26.929Z,97014.97
2022-11-21T07:03:55.300Z,97012.09
2022-11-21T07:06:23.599Z,97009.53
2022-11-21T07:11:44.455Z,97005.63
2022-11-21T07:14:12.141Z,97008.56
2022-11-21T07:16:39.525Z,96996.16
2022-11-21T07:19:07.003Z,97001.03
2022-11-21T07:21:34.434Z,97005.38
2022-11-21T07:24:02.507Z,96994.69
2022-11-21T07:26:29.713Z,97006.44
2022-11-21T07:28:58.633Z,96998.38
2022-11-21T07:31:25.905Z,97006.72
2022-11-21T07:33:53.419Z,97006.13
2022-11-21T07:36:20.661Z,97010.84
2022-11-21T07:38:48.188Z,96999.50
2022-11-21T07:41:15.427Z,97011.41
2022-11-21T07:43:42.939Z,97002.41
2022-11-21T07:46:10.136Z,97002.53
2022-11-21T07:48:37.774Z,97000.06
2022-11-21T07:51:06.083Z,97001.75
2022-11-21T07:53:33.755Z,96998.22
2022-11-21T07:56:01.224Z,96991.31
2022-11-21T07:58:28.864Z,96987.91
2022-11-21T08:00:56.648Z,96988.91
2022-11-21T08:03:25.444Z,96994.53
2022-11-21T08:05:52.735Z,96994.06
2022-11-21T08:08:20.335Z,96982.44
2022-11-21T08:10:47.648Z,96982.81
2022-11-21T08:13:15.381Z,96984.19
2022-11-21T08:15:42.619Z,96982.13
2022-11-21T08:18:21.016Z,96986.78
2022-11-21T08:20:48.614Z,96981.66
2022-11-21T08:23:16.488Z,96993.50
2022-11-21T08:25:45.281Z,96986.56
2022-11-21T08:28:13.658Z,96984.34
2022-11-21T08:30:41.237Z,96982.16
2022-11-21T08:33:09.176Z,96989.56
2022-11-21T08:35:40.298Z,96987.16
2022-11-21T08:38:08.621Z,96997.75
2022-11-21T08:40:36.636Z,97003.16
2022-11-21T08:43:09.958Z,97003.25
2022-11-21T08:45:39.739Z,96996.72
2022-11-21T08:48:11.917Z,96999.56
2022-11-21T08:50:39.495Z,96989.47
2022-11-21T08:53:07.016Z,96995.47
2022-11-21T08:55:34.184Z,96997.09
2022-11-21T08:58:01.780Z,96995.09
2022-11-21T09:00:29.150Z,96998.81
2022-11-21T09:02:56.642Z,96996.97
2022-11-21T09:05:23.922Z,96988.03
2022-11-21T09:07:58.493Z,96985.94
2022-11-21T09:10:27.007Z,96981.31
2022-11-21T09:13:00.031Z,96988.16
2022-11-21T09:15:45.622Z,96979.34
2022-11-21T09:18:13.339Z,96978.75
2022-11-21T09:20:44.637Z,96981.09
2022-11-21T09:23:15.876Z,96977.50
2022-11-21T09:25:43.807Z,96972.13
2022-11-21T09:28:14.141Z,96970.97
2022-11-21T09:30:42.783Z,96976.38
2022-11-21T09:33:19.206Z,96973.34
2022-11-21T09:35:46.431Z,96968.19
2022-11-21T09:38:13.975Z,96969.25
2022-11-21T09:40:48.538Z,96965.94
2022-11-21T09:43:38.381Z,96965.03
2022-11-21T09:46:20.965Z,96957.78
2022-11-21T09:49:05.221Z,96961.09
2022-11-21T09:51:34.579Z,96958.91
2022-11-21T09:54:19.293Z,96962.34
2022-11-21T09:56:48.727Z,96960.69
2022-11-21T09:59:21.971Z,96959.66
2022-11-21T10:01:49.383Z,96950.34
2022-11-21T10:04:17.094Z,96948.78
2022-11-21T10:07:04.934Z,96954.19
2022-11-21T10:10:10.496Z,96946.38
2022-11-21T10:13:17.673Z,96943.88
2022-11-21T10:16:06.503Z,96946.25
2022-11-21T10:19:09.928Z,96942.44
2022-11-21T10:21:53.805Z,96936.03
2022-11-21T10:24:35.647Z,96940.44
2022-11-21T10:27:36.801Z,96925.38
2022-11-21T10:30:19.750Z,96924.13
2022-11-21T10:32:54.831Z,96921.06
2022-11-21T10:35:45.975Z,96918.22
2022-11-21T10:38:26.128Z,96923.72
2022-11-21T10:41:05.383Z,96922.09
2022-11-21T10:44:35.650Z,96924.25
2022-11-21T10:47:13.097Z,96922.78
2022-11-21T10:49:43.639Z,96926.19
2022-11-21T10:52:23.624Z,96919.25
2022-11-21T10:55:15.164Z,96904.81
2022-11-21T10:57:51.370Z,96921.66
2022-11-21T11:00:28.009Z,96916.28
2022-11-21T11:03:05.599Z,96916.47
2022-11-21T11:05:37.275Z,96917.78
2022-11-21T11:08:08.673Z,96912.91
2022-11-21T11:11:02.091Z,96915.50
2022-11-21T11:13:50.432Z,96912.94
2022-11-21T11:16:21.985Z,96918.41
2022-11-21T11:19:35.370Z,96923.56
2022-11-21T11:22:29.577Z,96921.81
2022-11-21T11:25:00.503Z,96930.13
2022-11-21T11:27:29.931Z,96915.28
2022-11-21T11:29:57.169Z,96918.59
2022-11-21T11:32:25.088Z,96916.34
2022-11-21T11:35:21.968Z,96911.16
2022-11-21T11:38:04.163Z,96902.22
2022-11-21T11:40:42.248Z,96919.28
2022-11-21T11:44:10.217Z,96913.88
2022-11-21T11:47:30.593Z,96913.44
2022-11-21T11:50:17.003Z,96918.09
2022-11-21T11:53:11.433Z,96920.28
2022-11-21T11:55:57.537Z,96908.91
2022-11-21T11:58:49.436Z,96921.94
2022-11-21T12:01:36.648Z,96906.69
2022-11-21T12:04:27.667Z,96921.97
2022-11-21T12:08:19.792Z,96923.19
2022-11-21T12:10:18.348Z,96920.34
2022-11-21T12:13:05.576Z,96911.84
2022-11-21T12:15:51.158Z,96915.75
2022-11-21T12:18:18.587Z,96919.28
2022-11-21T12:21:18.780Z,96915.59
2022-11-21T12:23:56.141Z,96918.44
2022-11-21T12:27:19.471Z,96923.59
2022-11-21T12:30:07.326Z,96917.44
2022-11-21T12:32:45.321Z,96914.44
2022-11-21T12:35:49.828Z,96903.66
2022-11-21T12:38:31.625Z,96913.38
2022-11-21T12:41:46.754Z,96895.22
2022-11-21T12:44:35.380Z,96903.72
2022-11-21T12:48:03.827Z,96897.00
2022-11-21T12:51:08.943Z,96895.88
2022-11-21T12:54:19.569Z,96897.41
2022-11-21T12:57:02.943Z,96891.88
2022-11-21T12:59:40.012Z,96892.97
2022-11-21T13:02:31.669Z,96899.81
2022-11-21T13:05:02.944Z,96908.06
2022-11-21T13:07:33.411Z,96900.72
2022-11-21T13:10:03.605Z,96894.25
2022-11-21T13:12:45.975Z,96897.41
2022-11-21T13:15:19.697Z,96899.75
2022-11-21T13:18:01.883Z,96895.50
2022-11-21T13:20:45.900Z,96905.41
2022-11-21T13:23:36.970Z,96899.75
2022-11-21T13:26:33.888Z,96909.47
2022-11-21T13:29:14.546Z,96899.44
2022-11-21T13:31:43.499Z,96907.13
2022-11-21T13:34:32.415Z,96897.66
2022-11-21T13:37:00.056Z,96907.84
2022-11-21T13:39:31.781Z,96898.16
2022-11-21T13:42:23.667Z,96910.53
2022-11-21T13:44:51.776Z,96903.19
2022-11-21T13:47:56.899Z,96913.69
2022-11-21T13:51:11.494Z,96908.25
2022-11-21T13:54:05.894Z,96917.81
2022-11-21T13:57:25.569Z,96918.75
2022-11-21T14:00:05.207Z,96911.53
2022-11-21T14:02:53.465Z,96920.97
2022-11-21T14:05:58.822Z,96918.41
2022-11-21T14:08:29.009Z,96910.13
2022-11-21T14:10:58.301Z,96914.56
2022-11-21T14:13:33.675Z,96907.84
2022-11-21T14:16:35.171Z,96908.53
2022-11-21T14:19:03.860Z,96913.31
2022-11-21T14:21:34.204Z,96913.91
2022-11-21T14:24:13.275Z,96920.06
2022-11-21T14:26:49.323Z,96917.97
2022-11-21T14:29:40.469Z,96918.97
2022-11-21T14:32:15.462Z,96925.03
2022-11-21T14:34:42.672Z,96924.41
2022-11-21T14:37:13.932Z,96924.28
2022-11-21T14:39:44.943Z,96927.25
2022-11-21T14:42:16.357Z,96929.13
2022-11-21T14:44:44.122Z,96923.59
2022-11-21T14:47:26.312Z,96927.47
2022-11-21T14:49:57.028Z,96919.69
2022-11-21T14:52:31.802Z,96925.84
2022-11-21T14:57:50.245Z,96926.94
2022-11-21T15:00:57.941Z,96934.56
2022-11-21T15:03:21.862Z,96932.16
2022-11-21T15:06:08.257Z,96931.56
2022-11-21T15:12:02.533Z,96940.94
2022-11-21T15:15:01.589Z,96937.41
2022-11-21T15:17:30.344Z,96943.31
2022-11-21T15:20:25.322Z,96933.44
2022-11-21T15:23:00.222Z,96947.06
2022-11-21T15:25:31.490Z,96945.78
2022-11-21T15:28:02.450Z,96937.47
2022-11-21T15:30:34.645Z,96940.88
2022-11-21T15:33:19.926Z,96942.66
2022-11-21T15:35:58.563Z,96940.06
2022-11-21T15:38:47.222Z,96935.00
2022-11-21T15:41:14.747Z,96933.53
2022-11-21T15:43:46.476Z,96937.78
2022-11-21T15:46:31.026Z,96931.56
2022-11-21T15:49:31.570Z,96930.94
2022-11-21T15:52:13.594Z,96938.53
2022-11-21T15:54:40.846Z,96934.66
2022-11-21T15:57:09.940Z,96930.03
2022-11-21T15:59:37.272Z,96928.34
2022-11-21T16:02:04.807Z,96934.78
2022-11-21T16:04:32.127Z,96934.56
2022-11-21T16:07:00.367Z,96934.56
2022-11-21T16:09:29.641Z,96931.28
2022-11-21T16:11:57.447Z,96928.44
2022-11-21T16:14:24.715Z,96929.00
2022-11-21T16:16:52.266Z,96929.34
2022-11-21T16:19:19.479Z,96927.16
2022-11-21T16:21:47.033Z,96935.78
2022-11-21T16:24:14.341Z,96930.00
2022-11-21T16:26:41.897Z,96930.16
2022-11-21T16:29:11.667Z,96937.88
2022-11-21T16:31:39.330Z,96929.06
2022-11-21T16:34:06.625Z,96926.16
2022-11-21T16:36:34.320Z,96920.34
2022-11-21T16:39:08.703Z,96925.84
2022-11-21T16:41:39.471Z,96927.63
2022-11-21T16:44:14.255Z,96929.47
2022-11-21T16:46:47.319Z,96923.38
2022-11-21T16:49:14.892Z,96921.28
2022-11-21T16:51:42.449Z,96933.81
2022-11-21T16:54:09.945Z,96917.91
2022-11-21T16:56:37.562Z,96918.84
2022-11-21T16:59:04.995Z,96920.38
2022-11-21T17:01:32.627Z,96927.84
2022-11-21T17:04:00.010Z,96930.75
2022-11-21T17:06:31.281Z,96937.53
2022-11-21T17:09:02.168Z,96935.75
2022-11-21T17:11:31.632Z,96934.00
2022-11-21T17:14:06.451Z,96931.88
2022-11-21T17:16:35.786Z,96939.81
2022-11-21T17:19:04.757Z,96937.06
2022-11-21T17:21:34.065Z,96941.31
2022-11-21T17:24:01.266Z,96946.47
2022-11-21T17:26:30.114Z,96939.75
2022-11-21T17:29:01.028Z,96940.47
2022-11-21T17:31:29.331Z,96929.41
2022-11-21T17:33:58.730Z,96938.94
2022-11-21T17:36:29.293Z,96938.13
2022-11-21T17:38:56.878Z,96933.34
2022-11-21T17:41:26.028Z,96932.16
2022-11-21T17:43:58.501Z,96932.88
2022-11-21T17:46:27.298Z,96932.97
2022-11-21T17:48:58.955Z,96936.91
2022-11-21T17:51:34.568Z,96940.09
2022-11-21T17:54:02.655Z,96941.13
2022-11-21T17:56:33.398Z,96944.47
2022-11-21T17:59:01.244Z,96953.91
2022-11-21T18:01:29.699Z,96944.34
2022-11-21T18:04:11.661Z,96944.47
2022-11-21T18:06:41.008Z,96951.41
2022-11-21T18:09:11.040Z,96945.91
2022-11-21T18:11:40.688Z,96944.00
2022-11-21T18:14:10.868Z,96943.19
2022-11-21T18:16:39.763Z,96949.50
2022-11-21T18:19:11.197Z,96941.84
2022-11-21T18:21:38.789Z,96940.66
2022-11-21T18:24:06.549Z,96937.06
2022-11-21T18:26:39.456Z,96941.78
2022-11-21T18:31:57.309Z,96952.25
2022-11-21T18:34:24.535Z,96946.53
2022-11-21T18:36:53.744Z,96960.09
2022-11-21T18:39:23.958Z,96946.78
2022-11-21T18:41:51.580Z,96955.63
2022-11-21T18:44:22.284Z,96949.28
2022-11-21T18:46:50.775Z,96949.28
2022-11-21T18:49:18.308Z,96952.72
2022-11-21T18:51:46.411Z,96951.66
2022-11-21T18:54:13.856Z,96950.81
2022-11-21T18:56:41.463Z,96956.31
2022-11-21T18:59:08.691Z,96963.91
2022-11-21T19:01:39.515Z,96959.03
2022-11-21T19:04:07.184Z,96959.09
2022-11-21T19:06:35.126Z,96963.94
2022-11-21T19:09:02.441Z,96967.81
2022-11-21T19:11:30.573Z,96976.06
2022-11-21T19:14:00.617Z,96977.44
2022-11-21T19:16:31.613Z,96979.94
2022-11-21T19:19:33.074Z,96976.84
2022-11-21T19:21:47.310Z,96979.53
2022-11-21T19:24:19.613Z,96982.34
2022-11-21T19:26:47.315Z,96972.25
2022-11-21T19:29:14.571Z,96972.16
2022-11-21T19:31:45.775Z,96972.66
2022-11-21T19:34:15.658Z,96978.25
2022-11-21T19:36:44.929Z,96984.78
2022-11-21T19:39:13.137Z,96987.78
2022-11-21T19:41:40.871Z,96982.91
2022-11-21T19:44:08.109Z,96983.16
2022-11-21T19:46:39.827Z,96981.09
2022-11-21T19:49:10.407Z,96990.41
2022-11-21T19:51:41.749Z,96984.22
2022-11-21T19:54:12.708Z,96992.63
2022-11-21T19:56:40.700Z,96997.22
2022-11-21T19:59:11.662Z,96994.00
2022-11-21T20:01:39.869Z,97010.19
2022-11-21T20:04:07.221Z,97012.97
2022-11-21T20:06:46.206Z,97017.31
2022-11-21T20:09:17.440Z,97008.53
2022-11-21T20:11:49.370Z,97011.94
2022-11-21T20:14:21.951Z,97011.13
2022-11-21T20:16:52.997Z,97017.84
2022-11-21T20:19:24.074Z,97018.16
2022-11-21T20:21:52.837Z,97016.91
2022-11-21T20:24:20.149Z,97022.31
2022-11-21T20:26:47.840Z,97025.75
2022-11-21T20:29:16.601Z,97028.13
2022-11-21T20:31:44.573Z,97028.94
2022-11-21T20:34:13.797Z,97029.03
2022-11-21T20:36:42.649Z,97026.06
2022-11-21T20:39:18.742Z,97018.34
2022-11-21T20:41:48.270Z,97019.41
2022-11-21T20:47:11.235Z,97013.91
2022-11-21T20:49:38.555Z,97018.16
2022-11-21T20:54:54.573Z,97027.72
2022-11-21T20:57:22.672Z,97026.03
2022-11-21T20:59:50.893Z,97021.50
2022-11-21T21:02:19.323Z,97027.28
2022-11-21T21:04:46.962Z,97022.00
2022-11-21T21:07:14.580Z,97023.66
2022-11-21T21:09:41.824Z,97021.06
2022-11-21T21:12:09.413Z,97017.75
2022-11-21T21:14:36.759Z,97018.34
2022-11-21T21:17:04.270Z,97017.34
2022-11-21T21:19:31.823Z,97013.38
2022-11-21T21:21:59.654Z,97016.72
2022-11-21T21:24:27.773Z,97010.38
2022-11-21T21:26:55.241Z,97011.50
2022-11-21T21:29:22.495Z,97017.53
2022-11-21T21:31:52.327Z,97027.28
2022-11-21T21:34:22.444Z,97025.81
2022-11-21T21:36:51.216Z,97021.16
2022-11-21T21:39:18.637Z,97018.38
2022-11-21T21:41:47.255Z,97019.22
2022-11-21T21:44:15.666Z,97009.47
2022-11-21T21:46:43.731Z,97013.72
2022-11-21T21:49:11.659Z,97005.63
2022-11-21T21:51:40.112Z,96997.63
2022-11-21T21:54:14.896Z,97000.59
2022-11-21T21:56:42.569Z,97008.47
2022-11-21T21:59:09.871Z,96999.75
2022-11-21T22:01:37.648Z,96996.97
2022-11-21T22:04:06.384Z,96998.84
2022-11-21T22:06:35.067Z,96999.22
2022-11-21T22:09:03.439Z,96995.75
2022-11-21T22:11:37.159Z,96991.41
2022-11-21T22:14:10.273Z,96985.78
2022-11-21T22:16:37.805Z,96976.38
2022-11-21T22:19:05.118Z,96966.38
2022-11-21T22:21:36.302Z,96964.09
2022-11-21T22:24:27.748Z,96967.97
2022-11-21T22:26:55.668Z,96970.00
2022-11-21T22:29:23.079Z,96963.25
2022-11-21T22:31:51.634Z,96966.69
2022-11-21T22:34:18.887Z,96963.38
2022-11-21T22:36:46.939Z,96959.13
2022-11-21T22:39:15.383Z,96959.19
2022-11-21T22:41:42.827Z,96952.66
2022-11-21T22:44:10.238Z,96946.78
2022-11-21T22:46:37.848Z,96953.97
2022-11-21T22:49:05.068Z,96952.31
2022-11-21T22:51:32.613Z,96952.31
2022-11-21T22:53:59.713Z,96953.97
2022-11-21T22:56:27.359Z,96947.41
2022-11-21T22:58:54.929Z,96950.66
2022-11-21T23:01:25.753Z,96947.34
2022-11-21T23:03:53.433Z,96951.84
2022-11-21T23:06:24.337Z,96954.53
2022-11-21T23:08:54.240Z,96947.97
2022-11-21T23:11:27.817Z,96956.72
2022-11-21T23:13:56.401Z,96951.56
2022-11-21T23:16:25.103Z,96958.56
2022-11-21T23:18:54.313Z,96952.78
2022-11-21T23:21:22.718Z,96958.78
2022-11-21T23:23:50.145Z,96958.69
2022-11-21T23:26:17.870Z,96956.72
2022-11-21T23:28:45.165Z,96945.31
2022-11-21T23:31:12.766Z,96945.75
2022-11-21T23:33:40.017Z,96946.00
2022-11-21T23:36:07.634Z,96944.91
2022-11-21T23:38:34.907Z,96944.25
2022-11-21T23:41:02.398Z,96944.16
2022-11-21T23:43:29.608Z,96948.03
2022-11-21T23:45:57.259Z,96944.41
2022-11-21T23:48:24.480Z,96938.41
2022-11-21T23:50:52.320Z,96943.09
2022-11-21T23:53:21.016Z,96941.16
2022-11-21T23:55:48.953Z,96946.25
2022-11-21T23:58:17.185Z,96946.41
